Time;durP1;ratioP1;P1;durP2;ratioP2;P2;SDS_P1;SDS_P2;PMS_P1;PMS_P2;Temp;Humidity;BMP_temperature;BMP_pressure;BME280_temperature;BME280_humidity;BME280_pressure;Samples;Min_cycle;Max_cycle;Signal;HPM_P1;HPM_P2
2021/11/10 00:00:41;;;;;;;28.52;18.55;;;;;;;7.40;51.99;96114.41;4991432;28;20040;-72
2021/11/10 00:03:09;;;;;;;32.40;18.23;;;;;;;7.44;52.72;96123.44;4991140;28;20077;-73
2021/11/10 00:05:35;;;;;;;25.42;17.83;;;;;;;7.45;51.95;96126.88;4986354;28;20054;-73
2021/11/10 00:08:02;;;;;;;24.25;17.60;;;;;;;7.42;52.00;96127.38;4986813;28;20069;-73
2021/11/10 00:10:27;;;;;;;28.20;17.80;;;;;;;7.44;52.58;96126.09;4990884;28;20027;-72
2021/11/10 00:12:55;;;;;;;22.65;15.77;;;;;;;7.34;52.42;96106.72;5006377;28;20053;-73
2021/11/10 00:15:20;;;;;;;23.05;16.13;;;;;;;7.41;52.15;96116.00;4991355;28;20030;-73
2021/11/10 00:17:46;;;;;;;31.92;18.95;;;;;;;7.48;52.32;96131.66;4991790;28;20037;-72
2021/11/10 00:20:12;;;;;;;31.00;19.75;;;;;;;7.48;52.30;96129.00;4989501;28;20033;-73
2021/11/10 00:22:38;;;;;;;31.10;19.35;;;;;;;7.41;51.69;96120.50;4986377;28;20140;-72
2021/11/10 00:25:05;;;;;;;31.13;18.23;;;;;;;7.46;52.26;96131.91;4990989;28;20030;-73
2021/11/10 00:27:31;;;;;;;28.08;17.23;;;;;;;7.41;52.03;96129.22;4989964;28;20031;-72
2021/11/10 00:29:56;;;;;;;24.15;17.23;;;;;;;7.42;52.14;96117.63;4991121;28;20029;-73
2021/11/10 00:32:22;;;;;;;25.27;16.70;;;;;;;7.38;52.21;96116.53;4991374;28;20034;-73
2021/11/10 00:34:47;;;;;;;27.85;17.05;;;;;;;7.27;52.35;96094.53;4988096;28;20484;-73
2021/11/10 00:37:13;;;;;;;23.50;17.10;;;;;;;7.35;52.32;96095.06;4988863;28;20434;-73
2021/11/10 00:39:38;;;;;;;25.77;16.52;;;;;;;7.29;52.67;96103.00;4990822;28;20018;-73
2021/11/10 00:42:04;;;;;;;34.95;19.40;;;;;;;7.30;52.18;96101.94;4991253;28;20030;-72
2021/11/10 00:44:29;;;;;;;34.80;19.65;;;;;;;7.19;52.33;96095.00;4990938;28;20380;-73
2021/11/10 00:46:55;;;;;;;31.85;18.50;;;;;;;7.13;51.66;96093.41;4991291;28;20040;-73
2021/11/10 00:49:21;;;;;;;28.42;17.85;;;;;;;7.26;51.97;96114.09;5005316;28;20038;-72
2021/11/10 00:51:46;;;;;;;31.73;18.42;;;;;;;7.24;52.25;96108.28;4982783;28;20081;-73
2021/11/10 00:54:13;;;;;;;25.83;17.38;;;;;;;7.26;52.17;96110.66;4990471;28;20451;-73
2021/11/10 00:56:39;;;;;;;42.63;21.40;;;;;;;7.19;52.23;96099.50;4991210;28;20034;-73
2021/11/10 00:59:05;;;;;;;28.58;17.63;;;;;;;7.19;52.54;96091.56;4990642;28;20089;-73
2021/11/10 01:01:30;;;;;;;32.45;17.67;;;;;;;7.21;52.39;96100.03;4989239;28;20453;-72
2021/11/10 01:03:55;;;;;;;34.63;17.90;;;;;;;7.15;52.54;96098.44;5005166;28;20029;-73
2021/11/10 01:06:21;;;;;;;36.25;20.88;;;;;;;7.14;52.24;96097.63;4985764;28;20022;-72
2021/11/10 01:08:46;;;;;;;34.20;19.85;;;;;;;7.06;52.31;96087.53;4990540;28;20034;-73
2021/11/10 01:11:12;;;;;;;32.38;19.30;;;;;;;7.10;52.28;96099.22;4988987;28;20460;-73
2021/11/10 01:13:37;;;;;;;31.13;19.83;;;;;;;6.96;52.16;96066.34;4990280;28;20035;-72
2021/11/10 01:16:03;;;;;;;30.27;20.02;;;;;;;6.99;52.60;96071.91;4990622;28;20030;-72
2021/11/10 01:18:29;;;;;;;45.17;22.42;;;;;;;7.09;52.19;96092.31;5005900;28;20033;-72
2021/11/10 01:20:54;;;;;;;28.75;19.95;;;;;;;7.06;52.19;96098.13;4984961;28;20027;-73
2021/11/10 01:23:20;;;;;;;28.40;18.02;;;;;;;6.98;52.60;96090.69;4977426;28;20122;-73
2021/11/10 01:25:45;;;;;;;31.90;19.00;;;;;;;7.02;52.95;96086.50;4990391;28;20109;-73
2021/11/10 01:28:10;;;;;;;37.58;21.58;;;;;;;7.08;52.65;96089.94;4990580;28;20054;-75
2021/11/10 01:30:37;;;;;;;40.22;21.63;;;;;;;6.92;52.54;96070.56;4989897;28;20105;-72
2021/11/10 01:33:03;;;;;;;42.70;23.05;;;;;;;7.11;52.57;96094.72;4989918;28;20464;-72
2021/11/10 01:35:28;;;;;;;37.47;20.77;;;;;;;6.99;52.73;96081.69;4984958;28;20109;-72
2021/11/10 01:37:54;;;;;;;43.10;22.58;;;;;;;7.09;52.96;96091.53;4985470;28;20484;-72
2021/11/10 01:40:21;;;;;;;32.20;19.55;;;;;;;7.08;53.21;96093.38;4989851;28;20073;-73
2021/11/10 01:42:47;;;;;;;32.75;19.83;;;;;;;7.15;52.65;96098.44;4990361;28;20026;-74
2021/11/10 01:45:15;;;;;;;32.70;20.58;;;;;;;7.17;52.67;96093.69;4990239;28;20030;-73
2021/11/10 01:47:42;;;;;;;33.28;20.45;;;;;;;7.14;52.82;96083.63;4990469;28;20062;-73
2021/11/10 01:50:12;;;;;;;35.88;20.52;;;;;;;7.22;52.75;96081.28;5004507;28;20026;-74
2021/11/10 01:52:38;;;;;;;36.33;21.10;;;;;;;7.24;52.32;96089.75;4984771;28;20037;-73
2021/11/10 01:55:06;;;;;;;34.38;19.40;;;;;;;7.15;52.66;96069.34;4989907;28;20027;-73
2021/11/10 01:57:32;;;;;;;36.53;21.23;;;;;;;7.25;52.42;96080.75;4990321;28;20022;-73
2021/11/10 02:00:07;;;;;;;23.05;17.35;;;;;;;7.28;52.47;96080.25;5005032;28;20045;-72
2021/11/10 02:02:33;;;;;;;27.42;18.38;;;;;;;7.27;52.12;96062.78;4990129;28;20518;-73
2021/11/10 02:04:58;;;;;;;25.73;17.63;;;;;;;7.36;51.90;96064.91;4994714;28;20022;-73
2021/11/10 02:07:25;;;;;;;30.42;17.75;;;;;;;7.43;51.85;96073.41;4994223;28;20561;-73
2021/11/10 02:09:51;;;;;;;29.38;18.88;;;;;;;7.45;52.29;96068.63;4988554;28;20116;-72
2021/11/10 02:12:18;;;;;;;23.77;17.65;;;;;;;7.46;51.93;96067.56;4988632;28;20034;-72
2021/11/10 02:14:45;;;;;;;31.45;18.80;;;;;;;7.49;51.55;96075.81;5008584;28;20026;-72
2021/11/10 02:17:17;;;;;;;34.25;20.55;;;;;;;7.50;52.03;96079.25;4992529;28;20034;-73
2021/11/10 02:19:42;;;;;;;28.40;18.95;;;;;;;7.46;51.17;96084.25;4994861;28;20030;-72
2021/11/10 02:22:08;;;;;;;32.30;19.83;;;;;;;7.41;51.77;96076.28;4996197;28;20369;-72
2021/11/10 02:24:36;;;;;;;32.58;19.65;;;;;;;7.36;51.28;96067.53;4993104;28;20022;-72
2021/11/10 02:27:02;;;;;;;31.38;20.02;;;;;;;7.36;51.84;96064.91;4993708;28;20022;-72
2021/11/10 02:29:30;;;;;;;19.75;15.82;;;;;;;7.45;52.19;96071.28;4992983;28;20026;-72
2021/11/10 02:31:58;;;;;;;29.17;19.35;;;;;;;7.43;52.20;96074.19;4992407;28;20550;-72
2021/11/10 02:34:24;;;;;;;26.90;17.85;;;;;;;7.42;51.80;96066.50;4991523;28;20523;-73
2021/11/10 02:36:49;;;;;;;23.13;16.25;;;;;;;7.46;52.18;96080.81;4993192;28;20105;-71
2021/11/10 02:39:19;;;;;;;27.15;17.95;;;;;;;7.50;51.71;96076.59;4992868;28;20094;-72
2021/11/10 02:41:47;;;;;;;20.38;15.85;;;;;;;7.48;51.70;96084.81;5008462;28;20034;-72
2021/11/10 02:44:16;;;;;;;26.27;16.90;;;;;;;7.48;51.64;96068.13;4992861;28;20432;-73
2021/11/10 02:46:42;;;;;;;29.83;18.40;;;;;;;7.46;51.38;96062.28;5008270;28;20023;-72
2021/11/10 02:49:07;;;;;;;31.40;19.30;;;;;;;7.36;51.39;96051.66;4992982;28;20057;-72
2021/11/10 02:51:33;;;;;;;23.60;17.05;;;;;;;7.30;51.84;96051.66;4996876;28;20077;-73
2021/11/10 02:53:59;;;;;;;21.15;17.08;;;;;;;7.29;51.55;96062.50;4988362;28;20085;-72
2021/11/10 02:56:24;;;;;;;35.50;20.33;;;;;;;7.37;52.03;96058.53;4993054;28;20023;-72
2021/11/10 02:58:49;;;;;;;32.10;19.58;;;;;;;7.40;51.89;96064.13;4993026;28;20026;-72
2021/11/10 03:01:15;;;;;;;26.38;18.08;;;;;;;7.35;51.97;96048.22;4992476;28;20093;-72
2021/11/10 03:03:40;;;;;;;37.40;20.67;;;;;;;7.37;52.13;96053.25;5007567;28;20076;-72
2021/11/10 03:06:06;;;;;;;25.65;18.55;;;;;;;7.34;51.97;96045.84;4987533;28;20054;-72
2021/11/10 03:08:31;;;;;;;21.58;16.35;;;;;;;7.37;52.36;96046.13;4992270;28;20224;-72
2021/11/10 03:10:57;;;;;;;31.35;19.15;;;;;;;7.40;51.34;96050.88;4992322;28;20022;-73
2021/11/10 03:13:23;;;;;;;26.15;17.33;;;;;;;7.34;51.74;96043.22;5007275;28;20034;-72
2021/11/10 03:15:49;;;;;;;29.55;19.23;;;;;;;7.24;51.38;96020.16;4992713;28;20077;-72
2021/11/10 03:18:15;;;;;;;29.23;18.90;;;;;;;7.24;51.38;96020.94;4992646;28;20106;-72
2021/11/10 03:20:41;;;;;;;27.60;19.20;;;;;;;7.20;51.47;96017.22;4990327;28;20105;-72
2021/11/10 03:23:07;;;;;;;43.13;21.25;;;;;;;7.36;51.71;96041.09;4988438;28;20030;-71
2021/11/10 03:25:34;;;;;;;29.60;19.38;;;;;;;7.30;52.06;96037.63;4990932;28;20034;-71
2021/11/10 03:28:00;;;;;;;24.95;17.73;;;;;;;7.32;52.42;96037.34;4992090;28;20062;-73
2021/11/10 03:30:26;;;;;;;24.05;16.77;;;;;;;7.37;51.55;96045.31;5006786;28;20034;-72
2021/11/10 03:32:52;;;;;;;25.73;17.23;;;;;;;7.22;52.24;96016.97;4991924;28;20049;-72
2021/11/10 03:35:19;;;;;;;36.85;20.75;;;;;;;7.33;51.97;96031.03;4991638;28;20477;-74
2021/11/10 03:37:45;;;;;;;32.58;20.13;;;;;;;7.27;52.12;96023.09;4989860;28;20096;-72
2021/11/10 03:40:12;;;;;;;29.10;17.98;;;;;;;7.32;52.21;96029.41;4989104;28;20476;-72
2021/11/10 03:42:37;;;;;;;22.35;17.45;;;;;;;7.33;52.01;96029.19;4992197;28;20105;-72
2021/11/10 03:45:04;;;;;;;30.17;18.65;;;;;;;7.28;52.42;96022.03;4990751;28;20137;-72
2021/11/10 03:47:30;;;;;;;32.50;19.65;;;;;;;7.38;52.38;96025.75;4992141;28;20030;-72
2021/11/10 03:49:55;;;;;;;38.83;21.20;;;;;;;7.38;51.72;96026.53;4991586;28;20033;-73
2021/11/10 03:52:20;;;;;;;32.38;19.60;;;;;;;7.36;51.96;96031.28;4991784;28;20033;-72
2021/11/10 03:54:47;;;;;;;37.35;21.08;;;;;;;7.36;51.73;96043.72;4991386;28;20045;-73
2021/11/10 03:57:13;;;;;;;29.40;19.13;;;;;;;7.29;52.05;96028.91;4987440;28;20049;-72
2021/11/10 03:59:39;;;;;;;28.08;19.27;;;;;;;7.34;51.45;96040.56;4972164;28;20469;-72
2021/11/10 04:02:06;;;;;;;33.72;20.02;;;;;;;7.27;51.93;96031.03;4972628;28;20077;-72
2021/11/10 04:04:32;;;;;;;33.10;19.92;;;;;;;7.28;51.93;96027.31;4972274;28;20058;-72
2021/11/10 04:06:57;;;;;;;38.58;21.38;;;;;;;7.32;52.05;96029.41;4989121;28;20068;-73
2021/11/10 04:09:23;;;;;;;40.75;21.77;;;;;;;7.28;52.03;96037.91;4991990;28;20480;-73
2021/11/10 04:11:49;;;;;;;27.77;18.48;;;;;;;7.25;51.66;96038.41;4991585;28;20488;-72
2021/11/10 04:14:14;;;;;;;29.60;19.10;;;;;;;7.30;52.42;96034.97;4991302;28;20030;-72
2021/11/10 04:16:40;;;;;;;35.90;20.50;;;;;;;7.26;52.35;96025.97;4991549;28;20503;-72
2021/11/10 04:19:05;;;;;;;38.30;20.13;;;;;;;7.35;51.42;96042.13;4991335;28;20026;-73
2021/11/10 04:21:31;;;;;;;25.67;17.20;;;;;;;7.33;52.34;96041.63;4996095;28;20096;-73
2021/11/10 04:23:58;;;;;;;28.83;17.23;;;;;;;7.33;52.07;96029.19;5007380;28;20026;-73
2021/11/10 04:26:27;;;;;;;24.60;16.98;;;;;;;7.34;52.19;96035.25;4990925;28;20027;-72
2021/11/10 04:28:52;;;;;;;29.70;17.48;;;;;;;7.29;51.74;96028.09;4990908;28;20075;-72
2021/11/10 04:31:19;;;;;;;22.75;16.90;;;;;;;7.38;52.24;96039.78;5005918;28;20455;-73
2021/11/10 04:33:45;;;;;;;24.17;16.98;;;;;;;7.39;51.60;96041.38;4990610;28;20030;-73
2021/11/10 04:36:11;;;;;;;25.63;16.80;;;;;;;7.37;51.79;96029.44;4993591;28;20045;-72
2021/11/10 04:38:36;;;;;;;24.05;17.33;;;;;;;7.42;51.69;96032.09;4986190;28;20431;-72
2021/11/10 04:41:02;;;;;;;26.38;18.38;;;;;;;7.46;51.73;96041.09;4991376;28;20034;-73
2021/11/10 04:43:28;;;;;;;28.67;17.80;;;;;;;7.38;51.64;96026.53;4989964;28;20026;-72
2021/11/10 04:48:31;;;;;;;22.02;16.52;;;;;;;7.39;51.48;96040.56;4992127;28;20040;-73
2021/11/10 04:50:56;;;;;;;22.15;16.65;;;;;;;7.39;51.69;96036.06;5004414;28;20018;-73
2021/11/10 04:53:22;;;;;;;23.80;17.98;;;;;;;7.38;51.60;96036.34;4992286;28;20031;-72
2021/11/10 04:55:47;;;;;;;28.00;17.73;;;;;;;7.39;51.71;96043.22;4985322;28;20088;-73
2021/11/10 04:58:12;;;;;;;17.95;15.15;;;;;;;7.39;51.83;96029.97;4990730;28;20039;-72
2021/11/10 05:00:39;;;;;;;23.63;17.10;;;;;;;7.45;51.19;96034.22;4990605;28;20053;-72
2021/11/10 05:03:05;;;;;;;33.85;20.75;;;;;;;7.32;51.69;96006.44;4990500;28;20019;-72
2021/11/10 05:05:30;;;;;;;25.20;16.85;;;;;;;7.40;51.42;96031.56;4989987;28;20424;-72
2021/11/10 05:07:56;;;;;;;31.35;17.92;;;;;;;7.41;51.75;96026.00;4989426;28;20563;-72
2021/11/10 05:10:21;;;;;;;25.10;17.60;;;;;;;7.42;51.45;96024.97;4989774;28;20019;-71
2021/11/10 05:12:47;;;;;;;23.05;16.88;;;;;;;7.44;51.89;96030.78;4990345;28;20026;-73
2021/11/10 05:15:12;;;;;;;30.88;19.30;;;;;;;7.49;51.27;96045.88;4990389;28;20032;-73
2021/11/10 05:17:38;;;;;;;25.98;17.13;;;;;;;7.51;51.49;96043.75;4990375;28;20495;-72
2021/11/10 05:20:05;;;;;;;25.30;17.05;;;;;;;7.51;51.49;96044.56;4989636;28;20022;-72
2021/11/10 05:22:30;;;;;;;27.60;17.45;;;;;;;7.40;51.41;96029.72;4991411;28;20030;-72
2021/11/10 05:24:56;;;;;;;23.95;16.30;;;;;;;7.48;51.63;96042.44;4989970;28;20026;-72
2021/11/10 05:27:21;;;;;;;26.25;17.77;;;;;;;7.01;52.66;96050.47;4990261;28;20062;-72
2021/11/10 05:29:46;;;;;;;24.80;16.30;;;;;;;6.67;53.70;96052.72;4990180;28;20469;-72
2021/11/10 05:32:12;;;;;;;23.25;16.85;;;;;;;7.00;53.47;96030.38;4990111;28;20034;-72
2021/11/10 05:34:38;;;;;;;22.60;16.88;;;;;;;7.18;52.59;96029.94;4990151;28;20104;-72
2021/11/10 05:37:03;;;;;;;19.13;16.05;;;;;;;7.39;52.56;96041.38;4985199;28;20022;-72
2021/11/10 05:39:29;;;;;;;25.67;17.75;;;;;;;7.35;52.63;96026.25;4994324;28;20089;-73
2021/11/10 05:41:54;;;;;;;32.38;20.23;;;;;;;7.43;52.49;96031.06;4990341;28;20038;-73
2021/11/10 05:44:20;;;;;;;33.38;18.70;;;;;;;7.48;51.88;96031.84;4990137;28;20026;-73
2021/11/10 05:46:45;;;;;;;34.20;20.15;;;;;;;7.50;51.45;96031.59;4990221;28;20032;-73
2021/11/10 05:49:11;;;;;;;27.10;18.85;;;;;;;7.52;51.67;96035.59;4992660;28;20034;-72
2021/11/10 05:51:36;;;;;;;26.70;17.98;;;;;;;7.45;51.95;96032.38;4992437;28;20030;-76
2021/11/10 05:54:03;;;;;;;37.65;19.95;;;;;;;7.48;51.71;96033.72;4987401;28;20085;-74
2021/11/10 05:56:32;;;;;;;28.30;17.33;;;;;;;7.47;52.13;96013.56;4995076;28;20022;-74
2021/11/10 05:58:58;;;;;;;28.15;17.77;;;;;;;7.61;51.81;96035.84;4994499;28;20030;-73
2021/11/10 06:01:24;;;;;;;30.77;19.27;;;;;;;7.63;51.35;96028.44;4994781;28;20109;-74
2021/11/10 06:03:50;;;;;;;25.17;17.55;;;;;;;7.66;51.69;96035.06;4992687;28;20121;-76
2021/11/10 06:06:15;;;;;;;29.13;18.58;;;;;;;7.69;51.91;96031.91;4992825;28;20527;-73
2021/11/10 06:08:41;;;;;;;35.33;20.10;;;;;;;7.72;51.63;96040.09;4988346;28;20037;-75
2021/11/10 06:11:08;;;;;;;36.22;19.83;;;;;;;7.74;51.63;96042.50;4992358;28;20038;-71
2021/11/10 06:13:35;;;;;;;31.98;18.75;;;;;;;7.74;51.43;96043.28;4993220;28;20034;-67
2021/11/10 06:16:00;;;;;;;22.05;16.55;;;;;;;7.74;51.17;96043.28;4991401;28;20033;-70
2021/11/10 06:18:26;;;;;;;30.77;18.92;;;;;;;7.68;51.32;96038.25;4993140;28;20030;-69
2021/11/10 06:20:52;;;;;;;26.50;18.95;;;;;;;7.67;51.34;96036.63;4992298;28;20030;-68
2021/11/10 06:23:17;;;;;;;21.73;16.20;;;;;;;7.77;51.18;96050.69;4988464;28;20033;-75
2021/11/10 06:25:43;;;;;;;22.48;16.15;;;;;;;7.74;51.84;96040.63;4992582;28;20022;-80
2021/11/10 06:28:08;;;;;;;20.23;15.95;;;;;;;7.73;51.65;96041.69;4993499;28;20041;-74
2021/11/10 06:30:35;;;;;;;32.30;19.42;;;;;;;7.89;51.87;96058.41;4993876;28;20026;-76
2021/11/10 06:33:00;;;;;;;22.38;15.98;;;;;;;7.88;51.88;96056.78;4994463;28;20046;-79
2021/11/10 06:35:26;;;;;;;22.83;16.08;;;;;;;7.96;51.90;96060.78;5009475;28;20064;-80
2021/11/10 06:37:51;;;;;;;26.38;18.33;;;;;;;7.95;52.13;96056.53;4990040;28;20091;-66
2021/11/10 06:40:17;;;;;;;31.13;19.80;;;;;;;7.94;51.92;96053.09;4991390;28;20105;-70
2021/11/10 06:42:42;;;;;;;28.13;19.23;;;;;;;8.09;51.76;96065.56;4994019;28;20133;-71
2021/11/10 06:45:08;;;;;;;27.30;18.92;;;;;;;8.21;51.87;96076.69;4993368;28;20126;-74
2021/11/10 06:47:34;;;;;;;22.17;14.75;;;;;;;8.21;51.39;96060.78;4993699;28;20031;-75
2021/11/10 06:50:01;;;;;;;24.63;17.45;;;;;;;8.37;51.26;96066.88;4994476;28;20384;-75
2021/11/10 06:52:27;;;;;;;24.73;17.40;;;;;;;8.36;51.24;96060.00;4987460;28;20156;-72
2021/11/10 06:54:53;;;;;;;23.33;16.85;;;;;;;8.49;51.29;96066.59;4993735;28;20506;-71
2021/11/10 06:57:19;;;;;;;20.40;15.77;;;;;;;8.61;51.10;96079.59;4992783;28;20019;-78
2021/11/10 06:59:45;;;;;;;20.30;15.38;;;;;;;8.61;50.83;96053.09;4992360;28;20503;-73
2021/11/10 07:02:10;;;;;;;25.02;17.30;;;;;;;8.78;50.84;96070.25;4992694;28;20065;-72
2021/11/10 07:04:36;;;;;;;22.05;15.77;;;;;;;8.82;50.70;96059.91;4992490;28;20061;-73
2021/11/10 07:07:03;;;;;;;21.20;15.48;;;;;;;8.97;50.33;96077.66;4988204;28;20115;-72
2021/11/10 07:09:28;;;;;;;22.05;15.25;;;;;;;9.04;50.69;96075.50;4984186;28;20018;-74
2021/11/10 07:11:53;;;;;;;14.90;12.85;;;;;;;9.04;50.07;96067.53;4987689;28;20085;-73
2021/11/10 07:14:19;;;;;;;18.60;15.60;;;;;;;9.18;50.51;96070.41;4992185;28;20436;-75
2021/11/10 07:16:44;;;;;;;16.15;14.05;;;;;;;9.28;50.13;96081.00;4992446;28;20069;-72
2021/11/10 07:19:10;;;;;;;17.08;14.77;;;;;;;9.36;49.83;96083.06;4991174;28;20038;-74
2021/11/10 07:21:35;;;;;;;21.83;14.80;;;;;;;9.42;50.06;96089.16;4992502;28;20037;-75
2021/11/10 07:24:01;;;;;;;22.90;16.77;;;;;;;9.50;49.82;96088.59;4988384;28;20523;-80
2021/11/10 07:26:27;;;;;;;22.75;15.90;;;;;;;9.48;49.43;96078.25;4985207;28;20034;-74
2021/11/10 07:28:53;;;;;;;16.05;14.25;;;;;;;9.54;50.00;96073.69;4992828;28;20030;-72
2021/11/10 07:31:18;;;;;;;18.33;13.63;;;;;;;9.67;49.30;96085.56;4990977;28;20026;-72
2021/11/10 07:33:44;;;;;;;15.48;13.45;;;;;;;9.65;49.70;96069.91;5007544;28;20117;-74
2021/11/10 07:36:09;;;;;;;14.55;12.30;;;;;;;9.71;49.37;96076.78;4993812;28;20034;-76
2021/11/10 07:38:39;;;;;;;12.80;11.43;;;;;;;9.79;49.25;96086.03;4987787;28;20383;-72
2021/11/10 07:41:11;;;;;;;16.70;12.93;;;;;;;9.93;48.98;96092.34;4992406;28;20030;-71
2021/11/10 07:43:37;;;;;;;14.23;11.10;;;;;;;10.01;48.95;96088.28;4990813;28;20120;-72
2021/11/10 07:46:11;;;;;;;14.90;13.40;;;;;;;10.06;48.83;96077.63;4991016;28;20054;-74
2021/11/10 07:48:36;;;;;;;15.07;12.65;;;;;;;10.12;48.29;96071.97;4993856;28;20477;-77
2021/11/10 07:51:02;;;;;;;17.90;12.15;;;;;;;10.15;49.07;96067.97;4991704;28;20040;-77
2021/11/10 07:53:28;;;;;;;16.13;12.82;;;;;;;10.26;48.69;96066.06;5007676;28;20169;-77
2021/11/10 07:55:53;;;;;;;16.33;12.80;;;;;;;10.30;48.37;96057.25;5003400;28;20025;-79
2021/11/10 07:58:18;;;;;;;15.35;12.07;;;;;;;10.36;49.09;96055.34;4993697;28;20029;-79
2021/11/10 08:00:44;;;;;;;12.05;10.85;;;;;;;10.47;48.26;96058.69;4992904;28;20042;-75
2021/11/10 08:03:09;;;;;;;15.82;11.68;;;;;;;10.57;48.27;96063.94;4991108;28;20395;-72
2021/11/10 08:05:36;;;;;;;13.98;12.68;;;;;;;10.73;48.36;96064.56;4992159;28;20336;-76
2021/11/10 08:08:01;;;;;;;16.40;12.68;;;;;;;10.80;48.30;96060.50;4986264;28;20029;-70
2021/11/10 08:10:27;;;;;;;18.50;13.75;;;;;;;10.88;48.17;96062.53;4984978;28;20018;-73
2021/11/10 08:12:53;;;;;;;16.17;13.23;;;;;;;10.97;48.06;96056.59;4990703;28;20117;-72
2021/11/10 08:15:18;;;;;;;16.33;12.98;;;;;;;11.01;47.91;96052.31;4991354;28;20054;-72
2021/11/10 08:17:44;;;;;;;21.75;14.45;;;;;;;11.19;48.10;96059.53;4991187;28;20468;-72
2021/11/10 08:20:15;;;;;;;18.50;13.75;;;;;;;11.29;47.51;96056.75;4991080;28;20077;-70
2021/11/10 08:22:43;;;;;;;23.67;13.82;;;;;;;11.42;48.15;96055.25;4985683;28;20038;-70
2021/11/10 08:25:10;;;;;;;17.33;14.15;;;;;;;11.57;47.60;96062.25;4985997;28;20034;-73
2021/11/10 08:27:36;;;;;;;17.10;12.18;;;;;;;11.62;47.15;96057.66;5006135;28;20022;-70
2021/11/10 08:30:09;;;;;;;13.55;11.93;;;;;;;11.81;47.51;96051.50;4990645;28;20478;-74
2021/11/10 08:32:34;;;;;;;16.90;12.05;;;;;;;11.97;47.09;96053.69;4990707;28;20488;-73
2021/11/10 08:35:01;;;;;;;12.63;10.60;;;;;;;12.15;46.58;96057.44;4990588;28;20088;-74
2021/11/10 08:37:27;;;;;;;16.92;11.48;;;;;;;12.32;46.24;96059.53;4990113;28;20120;-75
2021/11/10 08:39:53;;;;;;;14.13;12.15;;;;;;;12.47;45.92;96066.50;4986469;28;20113;-77
2021/11/10 08:42:18;;;;;;;12.38;11.10;;;;;;;12.58;46.04;96064.44;4991873;28;20042;-75
2021/11/10 08:44:46;;;;;;;13.70;11.82;;;;;;;12.69;46.10;96076.53;4990309;28;20442;-76
2021/11/10 08:47:14;;;;;;;14.15;11.32;;;;;;;12.84;45.59;96062.13;4991586;28;20042;-76
2021/11/10 08:49:40;;;;;;;12.68;11.02;;;;;;;12.78;45.34;96048.06;4991908;28;20022;-77
2021/11/10 08:52:06;;;;;;;11.88;9.52;;;;;;;12.85;45.42;96040.47;4986594;28;20386;-75
2021/11/10 08:54:32;;;;;;;13.65;11.13;;;;;;;13.02;45.69;96053.25;4991118;28;20106;-76
2021/11/10 08:56:58;;;;;;;11.30;10.10;;;;;;;12.94;44.92;96041.34;4991792;28;20026;-76
2021/11/10 08:59:25;;;;;;;13.88;11.20;;;;;;;13.13;45.18;96053.84;4991677;28;20462;-76
2021/11/10 09:01:54;;;;;;;16.35;11.85;;;;;;;13.19;44.84;96042.75;4991837;28;20057;-75
2021/11/10 09:04:21;;;;;;;16.40;10.60;;;;;;;13.28;44.69;96050.88;5006446;28;20178;-76
2021/11/10 09:06:48;;;;;;;14.10;11.85;;;;;;;13.38;44.56;96053.34;5005916;28;20014;-77
2021/11/10 09:09:14;;;;;;;11.95;10.82;;;;;;;13.46;44.60;96044.63;4985715;28;20374;-75
2021/11/10 09:11:40;;;;;;;18.63;11.20;;;;;;;13.66;44.38;96024.66;4990717;28;20033;-74
2021/11/10 09:14:06;;;;;;;16.45;10.60;;;;;;;13.99;44.06;96049.34;4991034;28;20041;-75
2021/11/10 09:16:32;;;;;;;12.30;11.13;;;;;;;14.23;43.64;96059.75;4991171;28;20033;-75
2021/11/10 09:18:58;;;;;;;16.13;10.43;;;;;;;14.46;42.78;96057.84;4989617;28;20054;-75
2021/11/10 09:21:23;;;;;;;11.15;10.02;;;;;;;14.60;42.20;96063.16;4990155;28;20042;-75
2021/11/10 09:23:49;;;;;;;10.25;9.05;;;;;;;14.68;41.90;96070.44;4988076;28;20038;-74
2021/11/10 09:26:14;;;;;;;11.55;10.27;;;;;;;14.62;42.05;96058.28;4988925;28;20022;-75
2021/11/10 09:28:40;;;;;;;15.40;10.18;;;;;;;14.30;41.83;96053.97;4990736;28;20033;-74
2021/11/10 09:31:06;;;;;;;12.30;9.77;;;;;;;14.59;42.06;96066.13;4989409;28;20480;-75
2021/11/10 09:33:35;;;;;;;11.38;10.25;;;;;;;14.77;42.09;96075.84;4990675;28;20030;-75
2021/11/10 09:36:01;;;;;;;12.82;10.23;;;;;;;14.90;42.47;96063.47;4990744;28;20113;-74
2021/11/10 09:38:27;;;;;;;11.98;10.55;;;;;;;14.94;41.89;96057.16;4982801;28;20030;-75
2021/11/10 09:40:59;;;;;;;13.02;10.90;;;;;;;15.11;41.94;96061.03;4993692;28;20081;-75
2021/11/10 09:43:43;;;;;;;13.35;9.77;;;;;;;15.18;41.67;96072.09;4990341;28;20050;-75
2021/11/10 09:46:12;;;;;;;14.13;9.90;;;;;;;15.31;41.36;96079.22;4991009;28;20073;-77
2021/11/10 09:48:38;;;;;;;11.43;10.00;;;;;;;15.29;40.54;96086.78;4991889;28;20031;-78
2021/11/10 09:51:06;;;;;;;16.65;10.07;;;;;;;13.36;44.19;96081.44;4991306;28;20189;-76
2021/11/10 09:53:33;;;;;;;11.82;9.35;;;;;;;14.03;42.97;96069.03;4990186;28;20639;-75
2021/11/10 09:55:59;;;;;;;10.98;9.85;;;;;;;14.72;41.95;96063.38;4990631;28;20037;-77
2021/11/10 09:58:26;;;;;;;12.90;10.65;;;;;;;14.95;41.72;96063.34;4990746;28;20045;-75
2021/11/10 10:00:59;;;;;;;15.77;11.57;;;;;;;15.22;41.84;96046.25;4990420;28;20031;-74
2021/11/10 10:03:26;;;;;;;14.60;11.35;;;;;;;15.49;40.94;96037.94;4990067;28;20057;-74
2021/11/10 10:05:53;;;;;;;14.30;10.93;;;;;;;15.81;40.75;96052.84;4990421;28;20053;-79
2021/11/10 10:08:21;;;;;;;16.42;11.88;;;;;;;16.00;39.92;96038.34;4989615;28;20085;-74
2021/11/10 10:10:47;;;;;;;21.17;12.98;;;;;;;16.24;39.69;96043.22;4984946;28;20031;-74
2021/11/10 10:13:15;;;;;;;14.00;12.50;;;;;;;16.18;39.10;96031.84;4989548;28;20034;-74
2021/11/10 10:15:44;;;;;;;17.00;10.98;;;;;;;16.40;39.09;96032.78;4989992;28;20109;-75
2021/11/10 10:18:14;;;;;;;17.00;12.20;;;;;;;16.53;38.84;96029.91;4990404;28;20081;-74
2021/11/10 10:20:41;;;;;;;15.25;11.57;;;;;;;16.59;38.66;96017.09;4990250;28;20057;-77
2021/11/10 10:23:11;;;;;;;13.57;12.13;;;;;;;16.41;38.29;96002.91;4999785;28;20395;-74
2021/11/10 10:25:53;;;;;;;11.70;10.50;;;;;;;16.47;37.76;95987.41;4990459;28;20176;-75
2021/11/10 10:28:29;;;;;;;18.50;10.48;;;;;;;16.43;37.70;95991.84;4990516;28;20180;-75
2021/11/10 10:31:00;;;;;;;12.52;10.35;;;;;;;16.53;37.85;95978.88;4990524;28;20476;-75
2021/11/10 10:33:29;;;;;;;15.85;10.60;;;;;;;16.59;37.58;95984.88;4990081;28;20034;-75
2021/11/10 10:36:00;;;;;;;17.58;9.75;;;;;;;16.86;37.30;96000.59;4993655;28;20062;-76
2021/11/10 10:38:34;;;;;;;11.10;10.05;;;;;;;17.02;37.33;95998.13;4988676;28;20035;-75
2021/11/10 10:41:05;;;;;;;10.75;9.75;;;;;;;17.29;36.63;95991.50;4989510;28;20026;-76
2021/11/10 10:43:39;;;;;;;10.50;9.37;;;;;;;17.35;36.61;95994.78;4974183;28;20034;-76
2021/11/10 10:46:04;;;;;;;11.85;9.20;;;;;;;17.47;36.34;95967.97;4972510;28;20074;-77
2021/11/10 10:48:30;;;;;;;11.50;10.32;;;;;;;17.31;35.85;95962.41;4973766;28;20027;-77
2021/11/10 10:51:05;;;;;;;16.55;10.07;;;;;;;17.35;35.67;95965.19;4973338;28;20023;-76
2021/11/10 10:53:45;;;;;;;15.05;10.27;;;;;;;17.61;36.01;95965.81;4988308;28;20043;-76
2021/11/10 10:56:31;;;;;;;10.52;9.43;;;;;;;17.64;35.60;95969.75;4990194;28;20018;-77
2021/11/10 10:59:10;;;;;;;14.23;9.65;;;;;;;17.70;35.19;95962.25;4993247;28;20057;-76
2021/11/10 11:01:40;;;;;;;15.55;9.95;;;;;;;17.83;35.26;95967.41;4993501;28;20476;-76
2021/11/10 11:04:07;;;;;;;22.77;9.77;;;;;;;17.66;35.14;95968.31;4993189;28;20026;-76
2021/11/10 11:06:40;;;;;;;18.13;8.85;;;;;;;17.63;34.88;95978.94;4993790;28;20069;-75
2021/11/10 11:09:19;;;;;;;12.23;8.60;;;;;;;17.68;35.04;95974.16;4992711;28;20046;-75
2021/11/10 11:12:40;;;;;;;17.10;9.30;;;;;;;17.78;34.79;95966.81;4980432;28;20503;-77
2021/11/10 11:15:05;;;;;;;11.32;8.20;;;;;;;17.79;34.95;95968.41;4970341;28;20038;-75
2021/11/10 11:17:38;;;;;;;13.88;8.23;;;;;;;17.91;34.98;95971.13;4973951;28;20051;-76
2021/11/10 11:20:19;;;;;;;14.60;8.13;;;;;;;18.02;34.82;95964.25;4973306;28;20098;-75
2021/11/10 11:22:47;;;;;;;12.23;8.55;;;;;;;18.14;34.52;95966.19;4979269;28;20022;-75
2021/11/10 11:25:23;;;;;;;14.05;8.75;;;;;;;18.06;34.74;95964.34;4985377;28;20018;-75